Time;durP1;ratioP1;P1;durP2;ratioP2;P2;SDS_P1;SDS_P2;PMS_P1;PMS_P2;Temp;Humidity;BMP_temperature;BMP_pressure;BME280_temperature;BME280_humidity;BME280_pressure;Samples;Min_cycle;Max_cycle;Signal;HPM_P1;HPM_P2
2023/09/30 00:01:11;;;;;;;8.55;2.40;;;11.70;99.90;;;;;;5015418;28;20132;-88
2023/09/30 00:03:37;;;;;;;9.48;4.10;;;11.60;99.90;;;;;;5018386;28;20727;-88
2023/09/30 00:06:03;;;;;;;12.90;2.63;;;11.60;99.90;;;;;;5009918;28;20667;-88
2023/09/30 00:08:29;;;;;;;7.78;2.38;;;11.60;99.90;;;;;;5033409;28;20120;-88
2023/09/30 00:10:55;;;;;;;14.75;2.55;;;11.60;99.90;;;;;;5017419;28;20041;-88
2023/09/30 00:13:21;;;;;;;15.75;2.50;;;11.60;99.90;;;;;;5031029;28;20064;-89
2023/09/30 00:15:47;;;;;;;8.70;2.25;;;11.60;99.90;;;;;;5018643;28;20111;-88
2023/09/30 00:18:13;;;;;;;8.82;2.63;;;11.50;99.90;;;;;;5017437;28;20048;-88
2023/09/30 00:20:39;;;;;;;9.68;2.75;;;11.50;99.90;;;;;;5017437;28;20048;-88
2023/09/30 00:23:05;;;;;;;10.70;2.35;;;11.50;99.90;;;;;;5031564;28;20048;-88
2023/09/30 00:25:32;;;;;;;11.73;2.53;;;11.50;99.90;;;;;;5031655;28;20070;-88
2023/09/30 00:27:57;;;;;;;12.75;2.78;;;11.60;99.90;;;;;;5034828;28;20507;-89
2023/09/30 00:30:23;;;;;;;18.52;6.07;;;11.60;99.90;;;;;;5034005;28;20044;-89
2023/09/30 00:32:49;;;;;;;20.05;6.75;;;11.60;99.90;;;;;;5034223;28;20033;-89
2023/09/30 00:35:16;;;;;;;21.58;7.30;;;11.70;99.90;;;;;;5034502;28;20491;-89
2023/09/30 00:37:42;;;;;;;15.57;3.00;;;11.80;99.90;;;;;;5034248;28;20112;-88
2023/09/30 00:40:13;;;;;;;9.52;2.33;;;11.80;99.90;;;;;;5017779;28;20040;-89
2023/09/30 00:42:40;;;;;;;8.97;2.23;;;11.80;99.90;;;;;;5034564;28;20041;-88
2023/09/30 00:45:09;;;;;;;13.63;2.70;;;11.80;99.90;;;;;;5034247;28;20358;-89
2023/09/30 00:47:35;;;;;;;8.85;2.40;;;11.70;99.90;;;;;;5017812;28;20041;-88
2023/09/30 00:50:03;;;;;;;18.80;7.20;;;11.70;99.90;;;;;;5033551;28;20069;-89
2023/09/30 00:52:31;;;;;;;20.42;6.70;;;11.80;99.90;;;;;;5034122;28;20045;-89
2023/09/30 00:54:58;;;;;;;8.27;2.85;;;11.90;99.90;;;;;;5017646;28;20033;-89
2023/09/30 00:57:24;;;;;;;13.45;2.70;;;11.90;99.90;;;;;;5034038;28;20037;-89
2023/09/30 00:59:51;;;;;;;10.77;2.72;;;11.80;99.90;;;;;;5032766;28;20048;-89
2023/09/30 01:02:18;;;;;;;15.07;3.35;;;11.80;99.90;;;;;;5017691;28;20045;-89
2023/09/30 01:04:44;;;;;;;15.88;6.78;;;11.80;99.90;;;;;;5034289;28;20037;-89
2023/09/30 01:07:09;;;;;;;12.70;3.45;;;11.80;99.90;;;;;;5033743;28;20032;-89
2023/09/30 01:09:36;;;;;;;11.82;2.67;;;11.80;99.90;;;;;;5033505;28;20041;-89
2023/09/30 01:12:02;;;;;;;9.93;2.38;;;11.80;99.90;;;;;;5017059;28;20037;-89
2023/09/30 01:14:30;;;;;;;11.43;2.97;;;11.80;99.90;;;;;;5017026;28;20032;-89
2023/09/30 01:16:56;;;;;;;9.05;2.42;;;11.80;99.90;;;;;;5017787;28;20037;-89
2023/09/30 01:19:24;;;;;;;18.88;7.32;;;11.80;99.90;;;;;;5017042;28;20083;-89
2023/09/30 01:21:58;;;;;;;10.38;2.65;;;11.80;99.90;;;;;;5017256;28;20041;-89
2023/09/30 01:24:24;;;;;;;11.60;3.13;;;11.90;99.90;;;;;;5017036;28;20090;-89
2023/09/30 01:26:50;;;;;;;11.40;3.03;;;11.80;99.90;;;;;;5033129;28;20043;-90
2023/09/30 01:29:17;;;;;;;15.07;3.35;;;11.80;99.90;;;;;;5033316;28;20037;-90
2023/09/30 01:31:42;;;;;;;12.63;2.53;;;11.80;99.90;;;;;;5033147;28;20068;-89
2023/09/30 01:34:08;;;;;;;19.55;7.25;;;11.80;99.90;;;;;;5016977;28;20530;-89
2023/09/30 01:36:33;;;;;;;17.05;6.90;;;11.80;99.90;;;;;;5033592;28;20040;-89
2023/09/30 01:39:01;;;;;;;9.70;2.70;;;11.90;99.90;;;;;;5016459;28;20083;-89
2023/09/30 01:41:27;;;;;;;14.18;3.28;;;11.90;99.90;;;;;;5017092;28;20106;-88
2023/09/30 01:43:53;;;;;;;11.60;2.85;;;11.80;99.90;;;;;;5033258;28;20049;-89
2023/09/30 01:46:19;;;;;;;11.57;3.00;;;11.80;99.90;;;;;;5016913;28;20041;-89
2023/09/30 01:48:44;;;;;;;11.77;2.92;;;11.80;99.90;;;;;;5016402;28;20047;-89
2023/09/30 01:51:10;;;;;;;20.27;7.47;;;11.80;99.90;;;;;;5050737;28;20052;-89
2023/09/30 01:53:36;;;;;;;9.15;2.40;;;11.80;99.90;;;;;;5016394;28;20045;-89
2023/09/30 01:56:02;;;;;;;9.15;2.78;;;11.80;99.90;;;;;;5016674;28;20095;-89
2023/09/30 01:58:28;;;;;;;8.40;2.45;;;11.70;99.90;;;;;;5015921;28;20074;-89
2023/09/30 02:00:54;;;;;;;11.98;3.05;;;11.80;99.90;;;;;;5033385;28;20041;-89
2023/09/30 02:03:19;;;;;;;9.95;2.60;;;11.70;99.90;;;;;;5033226;28;20431;-89
2023/09/30 02:05:46;;;;;;;9.57;2.67;;;11.70;99.90;;;;;;5016422;28;20033;-89
2023/09/30 02:08:13;;;;;;;9.45;2.95;;;11.70;99.90;;;;;;5015979;28;20052;-89
2023/09/30 02:10:40;;;;;;;19.13;6.90;;;11.70;99.90;;;;;;5032151;28;20531;-88
2023/09/30 02:13:06;;;;;;;12.35;2.72;;;11.70;99.90;;;;;;5016408;28;20040;-89
2023/09/30 02:15:33;;;;;;;8.45;3.22;;;11.70;99.90;;;;;;5033078;28;20040;-89
2023/09/30 02:18:00;;;;;;;9.02;2.70;;;11.70;99.90;;;;;;5016748;28;20496;-89
2023/09/30 02:20:29;;;;;;;7.85;2.58;;;11.60;99.90;;;;;;5016261;28;20072;-89
2023/09/30 02:22:55;;;;;;;17.50;7.13;;;11.60;99.90;;;;;;5017116;28;20065;-89
2023/09/30 02:25:21;;;;;;;20.65;7.47;;;11.70;99.90;;;;;;5017749;28;20033;-89
2023/09/30 02:27:47;;;;;;;12.88;3.78;;;11.80;99.90;;;;;;5051816;28;20098;-89
2023/09/30 02:30:15;;;;;;;10.50;3.30;;;11.70;99.90;;;;;;5016909;28;20043;-89
2023/09/30 02:32:41;;;;;;;10.35;2.92;;;11.70;99.90;;;;;;5032623;28;20053;-88
2023/09/30 02:35:10;;;;;;;10.75;3.42;;;11.70;99.90;;;;;;5016379;28;20055;-89
2023/09/30 02:37:36;;;;;;;12.85;3.05;;;11.70;99.90;;;;;;5049290;28;20094;-88
2023/09/30 02:40:09;;;;;;;9.02;2.50;;;11.60;99.90;;;;;;5015665;28;20041;-89
2023/09/30 02:42:36;;;;;;;18.05;7.72;;;11.60;99.90;;;;;;5033041;28;20037;-89
2023/09/30 02:45:03;;;;;;;18.67;8.00;;;11.70;99.90;;;;;;5016343;28;20499;-89
2023/09/30 02:47:28;;;;;;;17.98;7.68;;;11.80;99.90;;;;;;5032669;28;20041;-89
2023/09/30 02:49:56;;;;;;;16.67;3.20;;;11.80;99.90;;;;;;5015613;28;20048;-89
2023/09/30 02:52:22;;;;;;;14.07;2.78;;;11.80;99.90;;;;;;5032608;28;20101;-89
2023/09/30 02:54:48;;;;;;;12.73;3.33;;;11.70;99.90;;;;;;5016129;28;20484;-88
2023/09/30 02:57:15;;;;;;;11.48;3.17;;;11.70;99.90;;;;;;5013235;28;20037;-89
2023/09/30 02:59:41;;;;;;;10.02;3.13;;;11.70;99.90;;;;;;5015654;28;20171;-89
2023/09/30 03:02:06;;;;;;;9.52;3.20;;;11.70;99.90;;;;;;5016550;28;20120;-89
2023/09/30 03:04:32;;;;;;;12.65;3.13;;;11.60;99.90;;;;;;5016084;28;20033;-88
2023/09/30 03:06:58;;;;;;;16.45;8.05;;;11.60;99.90;;;;;;5015867;28;20041;-88
2023/09/30 03:09:24;;;;;;;18.67;7.40;;;11.70;99.90;;;;;;5031863;28;20059;-89
2023/09/30 03:11:49;;;;;;;10.20;3.05;;;11.70;99.90;;;;;;5031960;28;20041;-89
2023/09/30 03:14:15;;;;;;;9.90;2.95;;;11.70;99.90;;;;;;5032781;28;20041;-89
2023/09/30 03:16:42;;;;;;;14.25;2.88;;;11.70;99.90;;;;;;5016216;28;20579;-89
2023/09/30 03:19:08;;;;;;;9.65;2.38;;;11.70;99.90;;;;;;5032264;28;20045;-89
2023/09/30 03:21:35;;;;;;;9.85;2.60;;;11.60;99.90;;;;;;5015494;28;20067;-89
2023/09/30 03:24:04;;;;;;;10.95;3.03;;;11.60;99.90;;;;;;5035309;28;20576;-89
2023/09/30 03:26:30;;;;;;;11.45;4.20;;;11.60;99.90;;;;;;5019190;28;20094;-88
2023/09/30 03:28:56;;;;;;;13.35;3.97;;;11.60;99.90;;;;;;5035356;28;20041;-89
2023/09/30 03:31:25;;;;;;;13.18;3.42;;;11.50;99.90;;;;;;5019166;28;20055;-89
2023/09/30 03:33:53;;;;;;;10.77;2.88;;;11.60;99.90;;;;;;5035847;28;20112;-89
2023/09/30 03:36:20;;;;;;;10.43;2.67;;;11.60;99.90;;;;;;5035486;28;20098;-89
2023/09/30 03:38:46;;;;;;;9.20;3.10;;;11.50;99.90;;;;;;5018852;28;20048;-89
2023/09/30 03:41:13;;;;;;;11.90;3.28;;;11.60;99.90;;;;;;5035763;28;20041;-89
2023/09/30 03:43:41;;;;;;;19.55;8.27;;;11.60;99.90;;;;;;5019600;28;20041;-89
2023/09/30 03:46:09;;;;;;;7.97;3.45;;;11.60;99.90;;;;;;5018964;28;20041;-89
2023/09/30 03:48:39;;;;;;;14.25;3.45;;;11.60;99.90;;;;;;5018122;28;20508;-89
2023/09/30 03:51:14;;;;;;;10.82;3.15;;;11.60;99.90;;;;;;5035561;28;20512;-89
2023/09/30 03:53:44;;;;;;;12.30;3.17;;;11.60;99.90;;;;;;5018735;28;20166;-89
2023/09/30 03:56:11;;;;;;;9.95;3.63;;;11.60;99.90;;;;;;5018711;28;20123;-88
2023/09/30 03:58:41;;;;;;;13.35;3.78;;;11.60;99.90;;;;;;5035293;28;20033;-89
2023/09/30 04:01:11;;;;;;;16.27;3.88;;;11.50;99.90;;;;;;5035127;28;20455;-89
2023/09/30 04:03:39;;;;;;;9.93;3.35;;;11.60;99.90;;;;;;5035431;28;20041;-90
2023/09/30 04:06:06;;;;;;;11.35;3.65;;;11.60;99.90;;;;;;5035470;28;20048;-87
2023/09/30 04:08:33;;;;;;;11.38;3.80;;;11.50;99.90;;;;;;5017973;28;20446;-87
2023/09/30 04:10:59;;;;;;;16.83;7.28;;;11.50;99.90;;;;;;5017321;28;20041;-87
2023/09/30 04:13:25;;;;;;;11.98;4.13;;;11.60;99.90;;;;;;5018284;28;20079;-88
2023/09/30 04:15:51;;;;;;;13.98;3.20;;;11.60;99.90;;;;;;5017859;28;20064;-87
2023/09/30 04:18:19;;;;;;;7.68;2.58;;;11.50;99.90;;;;;;5035458;28;20045;-88
2023/09/30 04:20:46;;;;;;;13.80;2.45;;;11.50;99.90;;;;;;5052683;28;20119;-87
2023/09/30 04:23:13;;;;;;;17.55;3.92;;;11.50;99.90;;;;;;5018102;28;20072;-87
2023/09/30 04:25:39;;;;;;;12.00;3.42;;;11.50;99.90;;;;;;5034429;28;20041;-88
2023/09/30 04:28:06;;;;;;;9.80;3.05;;;11.50;99.90;;;;;;5017918;28;20045;-88
2023/09/30 04:30:32;;;;;;;13.73;3.35;;;11.60;99.90;;;;;;5017363;28;20069;-88
2023/09/30 04:32:59;;;;;;;18.13;8.63;;;11.50;99.90;;;;;;5010878;28;20033;-88
2023/09/30 04:35:25;;;;;;;19.05;8.18;;;11.60;99.90;;;;;;5018198;28;20488;-88
2023/09/30 04:37:51;;;;;;;11.60;3.75;;;11.70;99.90;;;;;;5018466;28;20041;-88
2023/09/30 04:40:19;;;;;;;10.27;2.65;;;11.70;99.90;;;;;;5034367;28;20404;-89
2023/09/30 04:42:46;;;;;;;16.60;8.57;;;11.70;99.90;;;;;;5018419;28;20041;-89
2023/09/30 04:45:12;;;;;;;11.43;3.60;;;11.70;99.90;;;;;;5034632;28;20052;-89
2023/09/30 04:47:38;;;;;;;9.32;3.35;;;11.70;99.90;;;;;;5017265;28;20044;-88
2023/09/30 04:50:08;;;;;;;14.05;4.53;;;11.70;99.90;;;;;;5017280;28;20041;-88
2023/09/30 04:52:34;;;;;;;11.27;4.15;;;11.70;99.90;;;;;;5029186;28;20048;-88
2023/09/30 04:55:00;;;;;;;21.90;10.10;;;11.60;99.90;;;;;;5040445;28;20044;-88
2023/09/30 04:57:26;;;;;;;16.80;4.65;;;11.80;99.90;;;;;;5036242;28;20399;-88
2023/09/30 04:59:52;;;;;;;10.88;3.83;;;11.70;99.90;;;;;;5019674;28;20091;-88
2023/09/30 05:02:18;;;;;;;14.10;4.00;;;11.70;99.90;;;;;;5021318;28;20036;-88
2023/09/30 05:04:44;;;;;;;9.57;3.55;;;11.70;99.90;;;;;;5023672;28;20032;-87
2023/09/30 05:07:10;;;;;;;11.90;5.25;;;11.70;99.90;;;;;;5017777;28;20565;-88
2023/09/30 05:09:36;;;;;;;19.10;9.73;;;11.70;99.90;;;;;;5031154;28;20052;-88
2023/09/30 05:12:04;;;;;;;9.20;3.55;;;11.70;99.90;;;;;;5017320;28;20124;-87
2023/09/30 05:14:29;;;;;;;12.18;3.78;;;11.70;99.90;;;;;;5033692;28;20450;-88
2023/09/30 05:16:56;;;;;;;13.18;3.63;;;11.70;99.90;;;;;;5017455;28;20123;-88
2023/09/30 05:19:22;;;;;;;11.95;4.60;;;11.60;99.90;;;;;;5017127;28;20041;-88
2023/09/30 05:21:48;;;;;;;14.25;3.75;;;11.60;99.90;;;;;;5033984;28;20202;-89
2023/09/30 05:24:14;;;;;;;16.10;5.10;;;11.60;99.90;;;;;;5034008;28;20064;-88
2023/09/30 05:26:40;;;;;;;18.25;9.93;;;11.60;99.90;;;;;;5016864;28;20732;-88
2023/09/30 05:29:06;;;;;;;11.73;3.63;;;11.60;99.90;;;;;;5017078;28;20044;-89
2023/09/30 05:31:32;;;;;;;13.85;4.93;;;11.60;99.90;;;;;;5017256;28;20037;-88
2023/09/30 05:33:57;;;;;;;14.57;4.65;;;11.50;99.90;;;;;;5033605;28;20091;-88
2023/09/30 05:36:24;;;;;;;14.68;4.13;;;11.50;99.90;;;;;;5033456;28;20110;-88
2023/09/30 05:38:49;;;;;;;10.40;4.13;;;11.50;99.90;;;;;;5051658;28;20069;-88
2023/09/30 05:41:15;;;;;;;13.60;3.72;;;11.40;99.90;;;;;;5033295;28;20072;-88
2023/09/30 05:43:43;;;;;;;11.20;4.13;;;11.40;99.90;;;;;;5016145;28;20091;-89
2023/09/30 05:46:08;;;;;;;11.38;4.32;;;11.40;99.90;;;;;;5016556;28;20047;-88
2023/09/30 05:48:34;;;;;;;13.20;3.90;;;11.40;99.90;;;;;;5016274;28;20137;-88
2023/09/30 05:51:01;;;;;;;13.10;3.97;;;11.40;99.90;;;;;;5013345;28;20448;-89
2023/09/30 05:53:27;;;;;;;14.10;4.97;;;11.40;99.90;;;;;;5033409;28;20037;-88
2023/09/30 05:55:53;;;;;;;12.50;4.38;;;11.40;99.90;;;;;;5016620;28;20033;-88
2023/09/30 05:58:19;;;;;;;12.38;4.35;;;11.40;99.90;;;;;;5016647;28;20118;-88
2023/09/30 06:00:45;;;;;;;13.20;4.68;;;11.40;99.90;;;;;;5016728;28;20076;-89
2023/09/30 06:03:10;;;;;;;20.35;11.70;;;11.40;99.90;;;;;;5033296;28;20044;-88
2023/09/30 06:05:42;;;;;;;12.50;5.30;;;11.50;99.90;;;;;;5051487;28;20037;-89
2023/09/30 06:08:13;;;;;;;12.63;4.63;;;11.60;99.90;;;;;;5016264;28;20052;-89
2023/09/30 06:10:43;;;;;;;11.73;4.18;;;11.50;99.90;;;;;;5016293;28;20041;-89
2023/09/30 06:13:10;;;;;;;14.27;5.10;;;11.60;99.90;;;;;;5033348;28;20124;-88
2023/09/30 06:15:40;;;;;;;18.02;11.45;;;11.60;99.90;;;;;;5003868;28;20033;-89
2023/09/30 06:18:06;;;;;;;25.02;11.27;;;11.70;99.90;;;;;;5016272;28;20049;-88
2023/09/30 06:20:33;;;;;;;11.18;4.28;;;11.80;99.90;;;;;;5032808;28;20049;-88
2023/09/30 06:23:00;;;;;;;16.00;4.22;;;11.70;99.90;;;;;;5032818;28;20515;-88
2023/09/30 06:25:27;;;;;;;11.85;3.95;;;11.70;99.90;;;;;;5033417;28;20045;-89
2023/09/30 06:27:56;;;;;;;15.88;4.88;;;11.70;99.90;;;;;;5032757;28;20504;-89
2023/09/30 06:30:29;;;;;;;14.38;5.45;;;11.70;99.90;;;;;;5032321;28;20087;-88
2023/09/30 06:32:59;;;;;;;20.52;11.63;;;11.70;99.90;;;;;;5016712;28;20036;-88
2023/09/30 06:35:26;;;;;;;12.60;4.60;;;11.80;99.90;;;;;;5033077;28;20033;-89
2023/09/30 06:37:51;;;;;;;11.80;5.10;;;11.80;99.90;;;;;;5021367;28;20037;-89
2023/09/30 06:40:18;;;;;;;14.98;5.35;;;11.80;99.90;;;;;;5033033;28;20062;-88
2023/09/30 06:42:44;;;;;;;13.95;5.53;;;11.80;99.90;;;;;;5033151;28;20047;-89
2023/09/30 06:45:10;;;;;;;13.15;4.65;;;11.80;99.90;;;;;;5029557;28;20408;-88
2023/09/30 06:47:37;;;;;;;15.60;5.13;;;11.90;99.90;;;;;;5029836;28;20127;-88
2023/09/30 06:50:08;;;;;;;10.60;4.68;;;11.90;99.90;;;;;;5031998;28;20351;-88
2023/09/30 06:52:35;;;;;;;12.95;5.13;;;11.90;99.90;;;;;;5016335;28;20095;-88
2023/09/30 06:55:04;;;;;;;20.30;13.13;;;11.90;99.90;;;;;;5049041;28;20033;-88
2023/09/30 06:57:31;;;;;;;13.77;4.88;;;12.00;99.90;;;;;;5016965;28;20036;-88
2023/09/30 06:59:57;;;;;;;13.73;4.55;;;12.10;99.90;;;;;;5019454;28;20037;-88
2023/09/30 07:02:22;;;;;;;13.55;5.03;;;12.10;99.90;;;;;;5016454;28;20072;-88
2023/09/30 07:04:48;;;;;;;24.33;13.75;;;12.10;99.90;;;;;;5036333;28;20059;-88
2023/09/30 07:07:15;;;;;;;13.85;5.85;;;12.20;99.90;;;;;;5035922;28;20408;-88
2023/09/30 07:09:43;;;;;;;14.88;5.07;;;12.30;99.90;;;;;;5019493;28;20047;-88
2023/09/30 07:12:09;;;;;;;11.57;5.18;;;12.30;99.90;;;;;;5019444;28;20527;-88
2023/09/30 07:14:34;;;;;;;14.38;5.88;;;12.30;99.90;;;;;;5035092;28;20033;-88
2023/09/30 07:17:00;;;;;;;14.68;6.40;;;12.30;99.90;;;;;;5017804;28;20130;-88
2023/09/30 07:19:26;;;;;;;22.35;15.23;;;12.40;99.90;;;;;;5034657;28;20099;-88
2023/09/30 07:21:51;;;;;;;14.32;6.05;;;12.50;99.90;;;;;;5034327;28;20049;-88
2023/09/30 07:24:17;;;;;;;23.60;15.82;;;12.50;99.90;;;;;;5035746;28;20049;-88
2023/09/30 07:26:42;;;;;;;16.13;6.60;;;12.60;99.90;;;;;;5018996;28;20041;-88
2023/09/30 07:29:09;;;;;;;22.30;15.57;;;12.70;99.90;;;;;;5019109;28;20127;-88
2023/09/30 07:31:35;;;;;;;23.42;15.70;;;12.80;99.90;;;;;;5035661;28;20041;-89
2023/09/30 07:34:01;;;;;;;15.63;5.72;;;12.90;99.90;;;;;;5019621;28;20128;-89
2023/09/30 07:36:27;;;;;;;16.75;6.18;;;12.90;99.90;;;;;;5038373;28;20123;-89
2023/09/30 07:38:54;;;;;;;15.23;6.75;;;12.90;99.90;;;;;;5020315;28;20071;-90
2023/09/30 07:41:20;;;;;;;23.08;16.17;;;12.90;99.90;;;;;;5019034;28;20056;-89
2023/09/30 07:43:45;;;;;;;23.15;16.75;;;13.00;99.90;;;;;;5035493;28;20135;-88
2023/09/30 07:46:11;;;;;;;15.57;6.30;;;13.10;99.90;;;;;;5053276;28;20115;-89
2023/09/30 07:48:38;;;;;;;17.15;7.20;;;13.20;99.90;;;;;;5052699;28;20035;-89
2023/09/30 07:51:06;;;;;;;14.43;7.00;;;13.20;99.90;;;;;;5018517;28;20047;-89
2023/09/30 07:53:32;;;;;;;26.85;16.30;;;13.30;99.90;;;;;;5035331;28;20029;-89
2023/09/30 07:55:57;;;;;;;16.60;7.47;;;13.40;99.90;;;;;;5018965;28;20059;-88
2023/09/30 07:58:23;;;;;;;17.88;6.82;;;13.60;99.90;;;;;;5018759;28;20037;-89
2023/09/30 08:00:48;;;;;;;14.15;6.72;;;13.60;99.90;;;;;;5035364;28;20115;-88
2023/09/30 08:03:14;;;;;;;15.25;7.35;;;13.70;99.90;;;;;;5019245;28;20127;-89
2023/09/30 08:05:40;;;;;;;15.50;7.10;;;13.80;99.90;;;;;;5018801;28;20551;-89
2023/09/30 08:08:06;;;;;;;25.70;15.70;;;13.90;99.90;;;;;;5017706;28;20044;-88
2023/09/30 08:10:32;;;;;;;21.55;15.52;;;14.00;99.90;;;;;;5018144;28;20045;-88
2023/09/30 08:13:00;;;;;;;24.73;16.05;;;14.10;99.90;;;;;;5035008;28;20037;-89
2023/09/30 08:15:26;;;;;;;18.15;7.05;;;14.20;99.90;;;;;;5018342;28;20100;-89
2023/09/30 08:17:52;;;;;;;15.60;6.55;;;14.10;99.90;;;;;;5018600;28;20088;-89
2023/09/30 08:20:18;;;;;;;23.88;15.93;;;14.10;99.90;;;;;;5018169;28;20480;-89
2023/09/30 08:22:44;;;;;;;18.73;6.53;;;14.10;99.90;;;;;;5026894;28;20416;-89
2023/09/30 08:25:10;;;;;;;14.32;6.25;;;14.10;99.90;;;;;;5029394;28;20489;-89
2023/09/30 08:27:39;;;;;;;17.00;7.95;;;14.10;99.90;;;;;;5008233;28;20077;-89
2023/09/30 08:30:06;;;;;;;21.42;9.23;;;14.20;99.90;;;;;;5017528;28;20091;-89
2023/09/30 08:32:35;;;;;;;15.60;7.45;;;14.30;99.90;;;;;;5017996;28;20037;-89
2023/09/30 08:35:05;;;;;;;15.65;7.82;;;14.30;99.90;;;;;;5018510;28;20732;-88
2023/09/30 08:37:31;;;;;;;20.02;14.45;;;14.50;99.90;;;;;;5018311;28;20044;-89
2023/09/30 08:39:57;;;;;;;17.95;6.85;;;14.60;99.90;;;;;;5018525;28;20398;-90
2023/09/30 08:42:24;;;;;;;14.45;5.72;;;14.60;99.90;;;;;;5034605;28;20587;-89
2023/09/30 08:44:54;;;;;;;22.10;14.82;;;14.70;99.90;;;;;;5035040;28;20043;-89
2023/09/30 08:47:20;;;;;;;18.35;8.35;;;14.80;99.90;;;;;;5018615;28;20516;-89
2023/09/30 08:49:48;;;;;;;16.58;7.90;;;14.90;99.90;;;;;;5017961;28;20033;-89
2023/09/30 08:52:14;;;;;;;21.38;13.95;;;14.90;99.90;;;;;;5017932;28;20128;-90
2023/09/30 08:54:40;;;;;;;21.33;13.43;;;15.00;99.90;;;;;;5044037;28;20500;-89
2023/09/30 08:57:09;;;;;;;21.95;14.60;;;15.10;99.90;;;;;;5018868;28;20039;-89
2023/09/30 08:59:35;;;;;;;12.90;5.53;;;15.00;99.90;;;;;;5051267;28;20037;-90
2023/09/30 09:02:01;;;;;;;18.38;7.22;;;15.00;99.90;;;;;;5034375;28;20056;-90
2023/09/30 09:04:27;;;;;;;17.52;7.68;;;15.00;99.90;;;;;;5034551;28;20415;-90
2023/09/30 09:06:55;;;;;;;24.05;14.07;;;15.00;99.90;;;;;;5017878;28;20557;-90
2023/09/30 09:09:22;;;;;;;15.70;7.45;;;15.10;99.90;;;;;;5014187;28;20038;-90
2023/09/30 09:11:48;;;;;;;15.50;7.03;;;15.20;99.90;;;;;;5050792;28;20080;-90
2023/09/30 09:14:14;;;;;;;20.48;13.70;;;15.30;99.90;;;;;;5017921;28;20048;-89
2023/09/30 09:16:56;;;;;;;20.70;13.10;;;15.40;99.90;;;;;;5017838;28;20043;-89
2023/09/30 09:19:22;;;;;;;14.93;7.32;;;15.60;99.90;;;;;;5017600;28;20492;-89
2023/09/30 09:22:04;;;;;;;20.92;13.70;;;15.60;99.90;;;;;;5016608;28;20052;-90
2023/09/30 09:24:33;;;;;;;18.15;13.15;;;15.70;99.90;;;;;;5017985;28;20134;-89
2023/09/30 09:27:06;;;;;;;21.30;13.70;;;15.90;99.90;;;;;;5017117;28;20049;-90
2023/09/30 09:29:33;;;;;;;26.45;6.85;;;16.00;99.90;;;;;;5016965;28;20045;-90
2023/09/30 09:32:12;;;;;;;18.80;12.13;;;16.10;99.90;;;;;;5051719;28;20515;-90
2023/09/30 09:34:39;;;;;;;20.60;13.70;;;16.20;99.90;;;;;;5033811;28;20116;-90
2023/09/30 09:37:22;;;;;;;16.30;6.90;;;16.30;99.90;;;;;;5033738;28;20098;-89
2023/09/30 09:39:57;;;;;;;15.93;6.80;;;16.30;99.90;;;;;;5017130;28;20424;-90
2023/09/30 09:42:28;;;;;;;17.42;12.45;;;16.30;99.90;;;;;;5051633;28;20040;-89
2023/09/30 09:45:02;;;;;;;20.88;12.30;;;16.40;99.90;;;;;;5033675;28;20068;-90
2023/09/30 09:47:31;;;;;;;14.68;8.90;;;16.50;99.90;;;;;;5033085;28;20037;-90
2023/09/30 09:49:57;;;;;;;15.18;6.78;;;16.50;99.90;;;;;;5016474;28;20037;-90
2023/09/30 09:52:24;;;;;;;19.38;11.02;;;16.60;99.90;;;;;;5016546;28;20037;-90
2023/09/30 09:54:51;;;;;;;14.45;7.07;;;16.70;99.90;;;;;;5031804;28;20055;-90
2023/09/30 09:57:21;;;;;;;19.15;11.15;;;16.80;99.90;;;;;;5018996;28;20505;-89
2023/09/30 09:59:47;;;;;;;17.45;10.52;;;16.80;99.90;;;;;;5038206;28;20508;-90
2023/09/30 10:02:14;;;;;;;19.45;11.43;;;16.90;99.90;;;;;;5022204;28;20064;-90
2023/09/30 10:04:43;;;;;;;19.58;12.57;;;16.90;99.90;;;;;;5022633;28;20096;-90
2023/09/30 10:07:30;;;;;;;12.52;5.45;;;17.10;99.90;;;;;;5031048;28;20037;-90
2023/09/30 10:10:00;;;;;;;17.42;11.77;;;17.00;99.90;;;;;;5043416;28;20044;-90
2023/09/30 10:12:26;;;;;;;14.75;7.40;;;17.10;99.90;;;;;;5026624;28;20044;-90
2023/09/30 10:14:52;;;;;;;17.65;11.13;;;17.20;99.90;;;;;;5043970;28;20029;-90
2023/09/30 10:17:18;;;;;;;16.83;10.88;;;17.30;99.90;;;;;;5044371;28;20511;-90
2023/09/30 10:20:06;;;;;;;18.48;10.93;;;17.30;99.90;;;;;;5051377;28;20025;-90
2023/09/30 10:22:32;;;;;;;16.52;9.13;;;17.50;99.90;;;;;;5033584;28;20033;-90
2023/09/30 10:25:05;;;;;;;15.85;9.70;;;17.60;99.90;;;;;;5028467;28;20044;-90
2023/09/30 10:27:32;;;;;;;17.83;9.45;;;17.70;99.90;;;;;;5030561;28;20128;-90
2023/09/30 10:30:05;;;;;;;15.57;9.57;;;17.80;99.90;;;;;;5020392;28;20040;-90
2023/09/30 10:32:50;;;;;;;15.95;9.70;;;17.90;99.90;;;;;;5030337;28;20548;-91
2023/09/30 10:35:21;;;;;;;17.95;9.60;;;17.90;99.90;;;;;;5029870;28;20169;-90
2023/09/30 10:37:48;;;;;;;15.70;8.90;;;18.00;99.90;;;;;;5026916;28;20037;-91
2023/09/30 10:40:32;;;;;;;16.60;9.35;;;18.10;99.90;;;;;;5040480;28;20032;-91
2023/09/30 10:42:57;;;;;;;16.67;5.75;;;18.20;99.90;;;;;;5021851;28;20038;-91
2023/09/30 10:45:44;;;;;;;17.38;9.75;;;18.20;99.90;;;;;;5016478;28;20131;-91
2023/09/30 10:48:25;;;;;;;21.08;10.48;;;18.30;99.90;;;;;;5026461;28;20045;-91
2023/09/30 10:50:51;;;;;;;13.98;5.78;;;18.40;99.90;;;;;;5020426;28;20570;-91
2023/09/30 10:53:18;;;;;;;14.93;7.57;;;18.40;99.90;;;;;;5037330;28;20055;-91
2023/09/30 10:55:54;;;;;;;15.70;6.90;;;18.50;99.90;;;;;;5037253;28;20523;-91
2023/09/30 10:58:20;;;;;;;13.18;6.40;;;18.60;99.90;;;;;;5019739;28;20033;-91
2023/09/30 11:00:55;;;;;;;15.27;7.10;;;18.70;99.90;;;;;;5038137;28;20044;-91
2023/09/30 11:03:21;;;;;;;12.60;5.43;;;18.70;99.90;;;;;;5045123;28;20059;-91
2023/09/30 11:05:48;;;;;;;16.17;5.57;;;18.80;99.90;;;;;;5037301;28;20048;-91
2023/09/30 11:08:17;;;;;;;11.15;5.03;;;18.80;99.90;;;;;;5043938;28;20033;-91
2023/09/30 11:10:50;;;;;;;13.00;5.00;;;18.80;99.90;;;;;;5026132;28;20626;-91
2023/09/30 11:13:16;;;;;;;13.35;5.25;;;18.90;99.90;;;;;;5040712;28;20048;-87
2023/09/30 11:15:43;;;;;;;15.27;5.93;;;19.00;99.90;;;;;;5045590;28;20111;-90
2023/09/30 11:18:18;;;;;;;14.07;5.35;;;19.10;99.90;;;;;;5027529;28;20033;-91
2023/09/30 11:20:44;;;;;;;11.20;3.90;;;19.20;99.90;;;;;;5023337;28;20146;-90
2023/09/30 11:23:14;;;;;;;11.82;4.45;;;19.30;99.90;;;;;;5027093;28;20137;-90
2023/09/30 11:25:41;;;;;;;13.02;4.43;;;19.30;99.90;;;;;;5023765;28;20037;-90
2023/09/30 11:28:13;;;;;;;13.88;4.07;;;19.30;99.90;;;;;;5022755;28;20087;-90
2023/09/30 11:30:55;;;;;;;;;;;19.30;99.90;;;;;;5023126;28;20416;-90
2023/09/30 11:33:22;;;;;;;12.48;3.67;;;19.20;99.90;;;;;;5018032;28;20007;-90
2023/09/30 11:36:03;;;;;;;9.35;3.08;;;19.20;99.90;;;;;;5034873;28;20060;-90
2023/09/30 11:38:30;;;;;;;13.60;3.40;;;19.20;99.90;;;;;;5016652;28;20037;-90
2023/09/30 11:41:06;;;;;;;9.10;2.88;;;19.30;99.90;;;;;;5019296;28;20039;-90
2023/09/30 11:43:34;;;;;;;11.38;3.42;;;19.40;99.90;;;;;;5015005;28;20072;-90
2023/09/30 11:46:13;;;;;;;7.28;1.67;;;19.40;99.90;;;;;;5014550;28;20083;-90
2023/09/30 11:48:59;;;;;;;10.75;3.45;;;19.40;99.90;;;;;;5029767;28;20050;-90
2023/09/30 11:51:26;;;;;;;19.55;3.30;;;19.40;99.90;;;;;;5035314;28;20044;-91
2023/09/30 11:53:53;;;;;;;10.13;3.38;;;19.30;99.90;;;;;;5032470;28;20048;-91
2023/09/30 11:56:19;;;;;;;12.35;3.45;;;19.40;99.90;;;;;;5018829;28;20116;-90
2023/09/30 11:58:48;;;;;;;10.57;2.80;;;19.50;99.90;;;;;;5031916;28;20029;-90
2023/09/30 12:01:16;;;;;;;12.15;3.58;;;19.40;99.90;;;;;;5018243;28;20069;-90
2023/09/30 12:03:42;;;;;;;11.82;3.05;;;19.40;99.90;;;;;;5018817;28;20503;-90
2023/09/30 12:06:08;;;;;;;9.13;2.75;;;19.40;99.90;;;;;;5034980;28;20037;-90
2023/09/30 12:08:33;;;;;;;13.20;2.70;;;19.50;99.90;;;;;;5017734;28;20124;-91
2023/09/30 12:10:59;;;;;;;8.27;2.47;;;19.60;99.90;;;;;;5011946;28;20136;-91
2023/09/30 12:13:26;;;;;;;10.13;2.53;;;19.80;99.90;;;;;;5017348;28;20083;-91
2023/09/30 12:15:52;;;;;;;11.75;2.90;;;19.80;95.40;;;;;;5034708;28;20036;-91
2023/09/30 12:18:23;;;;;;;10.68;2.45;;;19.90;94.20;;;;;;5017801;28;20040;-91
2023/09/30 12:20:52;;;;;;;10.75;2.67;;;19.90;93.30;;;;;;5017734;28;20044;-91
2023/09/30 12:23:19;;;;;;;4.82;1.50;;;19.90;93.90;;;;;;5035032;28;20439;-91
2023/09/30 12:25:48;;;;;;;9.63;2.65;;;20.00;96.20;;;;;;5018470;28;20041;-90
2023/09/30 12:28:15;;;;;;;9.18;2.40;;;20.20;93.50;;;;;;5018138;28;20045;-90
2023/09/30 12:30:41;;;;;;;9.18;2.80;;;20.30;91.00;;;;;;5040156;28;20045;-91
2023/09/30 12:33:07;;;;;;;10.05;2.83;;;20.40;90.10;;;;;;5022843;28;20041;-91
2023/09/30 12:35:33;;;;;;;10.52;2.80;;;20.40;90.80;;;;;;5018153;28;20040;-91
2023/09/30 12:37:59;;;;;;;8.82;2.83;;;20.50;92.30;;;;;;5017999;28;20413;-90
2023/09/30 12:40:25;;;;;;;9.70;2.60;;;20.50;90.80;;;;;;5034828;28;20036;-91